sensor_id;sensor_type;location;lat;lon;timestamp;pressure;altitude;pressure_sealevel;temperature;humidity
39275;BME280;24980;48.874;2.332;2024-01-15T00:02:16;100556.06;;;26.02;31.87
39275;BME280;24980;48.874;2.332;2024-01-15T00:04:46;100553.09;;;26.02;31.87
39275;BME280;24980;48.874;2.332;2024-01-15T00:07:16;100549.42;;;26.00;31.88
39275;BME280;24980;48.874;2.332;2024-01-15T00:09:46;100544.28;;;25.99;31.91
39275;BME280;24980;48.874;2.332;2024-01-15T00:12:16;100540.89;;;25.98;31.92
39275;BME280;24980;48.874;2.332;2024-01-15T00:14:46;100531.30;;;25.96;31.93
39275;BME280;24980;48.874;2.332;2024-01-15T00:17:16;100524.48;;;25.97;31.93
39275;BME280;24980;48.874;2.332;2024-01-15T00:19:47;100524.14;;;25.99;31.90
39275;BME280;24980;48.874;2.332;2024-01-15T00:22:25;100518.38;;;26.01;31.88
39275;BME280;24980;48.874;2.332;2024-01-15T00:24:47;100522.59;;;26.02;31.85
39275;BME280;24980;48.874;2.332;2024-01-15T00:27:17;100517.95;;;25.99;31.87
39275;BME280;24980;48.874;2.332;2024-01-15T00:29:47;100519.89;;;25.97;31.89
39275;BME280;24980;48.874;2.332;2024-01-15T00:32:17;100521.69;;;25.99;31.89
39275;BME280;24980;48.874;2.332;2024-01-15T00:34:47;100516.45;;;25.98;31.88
39275;BME280;24980;48.874;2.332;2024-01-15T00:37:17;100510.66;;;25.97;31.89
39275;BME280;24980;48.874;2.332;2024-01-15T00:39:47;100506.59;;;25.98;31.88
39275;BME280;24980;48.874;2.332;2024-01-15T00:42:17;100504.67;;;26.00;31.86
39275;BME280;24980;48.874;2.332;2024-01-15T00:44:47;100501.30;;;25.97;31.88
39275;BME280;24980;48.874;2.332;2024-01-15T00:47:20;100501.77;;;25.95;31.92
39275;BME280;24980;48.874;2.332;2024-01-15T00:49:48;100502.86;;;25.96;31.91
39275;BME280;24980;48.874;2.332;2024-01-15T00:52:18;100498.02;;;25.96;31.92
39275;BME280;24980;48.874;2.332;2024-01-15T00:54:48;100489.36;;;25.96;31.91
39275;BME280;24980;48.874;2.332;2024-01-15T00:57:30;100489.23;;;25.97;31.90
39275;BME280;24980;48.874;2.332;2024-01-15T00:59:49;100480.48;;;25.97;31.89
39275;BME280;24980;48.874;2.332;2024-01-15T01:02:20;100471.89;;;25.95;31.91
39275;BME280;24980;48.874;2.332;2024-01-15T01:04:49;100469.23;;;25.94;31.94
39275;BME280;24980;48.874;2.332;2024-01-15T01:07:19;100471.38;;;25.93;31.94
39275;BME280;24980;48.874;2.332;2024-01-15T01:09:49;100474.00;;;25.93;31.94
39275;BME280;24980;48.874;2.332;2024-01-15T01:12:19;100472.38;;;25.93;31.94
39275;BME280;24980;48.874;2.332;2024-01-15T01:14:49;100473.09;;;25.92;31.94
39275;BME280;24980;48.874;2.332;2024-01-15T01:17:19;100467.52;;;25.94;31.92
39275;BME280;24980;48.874;2.332;2024-01-15T01:19:49;100466.94;;;25.94;31.92
39275;BME280;24980;48.874;2.332;2024-01-15T01:22:21;100473.67;;;25.93;31.96
39275;BME280;24980;48.874;2.332;2024-01-15T01:24:49;100473.66;;;25.93;31.96
39275;BME280;24980;48.874;2.332;2024-01-15T01:27:27;100470.92;;;25.96;31.93
39275;BME280;24980;48.874;2.332;2024-01-15T01:29:50;100469.31;;;25.96;31.93
39275;BME280;24980;48.874;2.332;2024-01-15T01:32:20;100461.84;;;25.94;31.93
39275;BME280;24980;48.874;2.332;2024-01-15T01:34:50;100456.41;;;25.94;31.92
39275;BME280;24980;48.874;2.332;2024-01-15T01:37:20;100458.66;;;25.90;31.96
39275;BME280;24980;48.874;2.332;2024-01-15T01:39:50;100459.35;;;25.87;32.00
39275;BME280;24980;48.874;2.332;2024-01-15T01:42:21;100460.11;;;25.88;32.01
39275;BME280;24980;48.874;2.332;2024-01-15T01:44:51;100454.95;;;25.89;32.03
39275;BME280;24980;48.874;2.332;2024-01-15T01:47:21;100453.75;;;25.91;32.03
39275;BME280;24980;48.874;2.332;2024-01-15T01:49:52;100451.38;;;25.91;32.04
39275;BME280;24980;48.874;2.332;2024-01-15T01:52:22;100453.23;;;25.90;32.07
39275;BME280;24980;48.874;2.332;2024-01-15T01:54:54;100451.72;;;25.87;32.10
39275;BME280;24980;48.874;2.332;2024-01-15T01:57:24;100449.98;;;25.86;32.17
39275;BME280;24980;48.874;2.332;2024-01-15T01:59:58;100446.66;;;25.86;32.18
39275;BME280;24980;48.874;2.332;2024-01-15T02:02:24;100441.22;;;25.88;32.18
39275;BME280;24980;48.874;2.332;2024-01-15T02:04:58;100441.97;;;25.87;32.19
39275;BME280;24980;48.874;2.332;2024-01-15T02:07:26;100435.79;;;25.86;32.19
39275;BME280;24980;48.874;2.332;2024-01-15T02:09:56;100433.89;;;25.87;32.17
39275;BME280;24980;48.874;2.332;2024-01-15T02:12:26;100427.47;;;25.86;32.18
39275;BME280;24980;48.874;2.332;2024-01-15T02:14:56;100418.98;;;25.84;32.21
39275;BME280;24980;48.874;2.332;2024-01-15T02:17:26;100412.80;;;25.85;32.22
39275;BME280;24980;48.874;2.332;2024-01-15T02:19:56;100410.66;;;25.86;32.21
39275;BME280;24980;48.874;2.332;2024-01-15T02:22:26;100405.13;;;25.86;32.19
39275;BME280;24980;48.874;2.332;2024-01-15T02:24:56;100402.24;;;25.84;32.17
39275;BME280;24980;48.874;2.332;2024-01-15T02:27:26;100391.67;;;25.83;32.18
39275;BME280;24980;48.874;2.332;2024-01-15T02:29:56;100400.34;;;25.82;32.20
39275;BME280;24980;48.874;2.332;2024-01-15T02:32:27;100404.66;;;25.81;32.22
39275;BME280;24980;48.874;2.332;2024-01-15T02:34:57;100410.03;;;25.80;32.23
39275;BME280;24980;48.874;2.332;2024-01-15T02:37:27;100414.94;;;25.81;32.21
39275;BME280;24980;48.874;2.332;2024-01-15T02:39:57;100426.99;;;25.83;32.18
39275;BME280;24980;48.874;2.332;2024-01-15T02:42:27;100430.46;;;25.85;32.15
39275;BME280;24980;48.874;2.332;2024-01-15T02:44:57;100420.89;;;25.82;32.15
39275;BME280;24980;48.874;2.332;2024-01-15T02:47:27;100418.61;;;25.80;32.17
39275;BME280;24980;48.874;2.332;2024-01-15T02:49:57;100414.98;;;25.79;32.19
39275;BME280;24980;48.874;2.332;2024-01-15T02:52:27;100418.22;;;25.78;32.21
39275;BME280;24980;48.874;2.332;2024-01-15T02:54:57;100413.33;;;25.75;32.21
39275;BME280;24980;48.874;2.332;2024-01-15T02:57:27;100407.09;;;25.77;32.18
39275;BME280;24980;48.874;2.332;2024-01-15T02:59:57;100406.45;;;25.81;32.15
39275;BME280;24980;48.874;2.332;2024-01-15T03:02:27;100409.36;;;25.80;32.14
39275;BME280;24980;48.874;2.332;2024-01-15T03:04:59;100414.55;;;25.77;32.16
39275;BME280;24980;48.874;2.332;2024-01-15T03:07:28;100413.47;;;25.74;32.19
39275;BME280;24980;48.874;2.332;2024-01-15T03:09:57;100411.25;;;25.75;32.19
39275;BME280;24980;48.874;2.332;2024-01-15T03:12:28;100414.33;;;25.76;32.17
39275;BME280;24980;48.874;2.332;2024-01-15T03:14:58;100411.23;;;25.78;32.16
39275;BME280;24980;48.874;2.332;2024-01-15T03:17:28;100409.86;;;25.78;32.15
39275;BME280;24980;48.874;2.332;2024-01-15T03:20:01;100415.53;;;25.81;32.14
39275;BME280;24980;48.874;2.332;2024-01-15T03:22:29;100416.37;;;25.81;32.13
39275;BME280;24980;48.874;2.332;2024-01-15T03:24:59;100423.05;;;25.79;32.15
39275;BME280;24980;48.874;2.332;2024-01-15T03:27:29;100423.98;;;25.77;32.17
39275;BME280;24980;48.874;2.332;2024-01-15T03:30:00;100429.64;;;25.80;32.14
39275;BME280;24980;48.874;2.332;2024-01-15T03:32:30;100422.49;;;25.81;32.13
39275;BME280;24980;48.874;2.332;2024-01-15T03:35:00;100422.77;;;25.82;32.10
39275;BME280;24980;48.874;2.332;2024-01-15T03:37:31;100430.91;;;25.80;32.08
39275;BME280;24980;48.874;2.332;2024-01-15T03:40:01;100425.84;;;25.77;32.10
39275;BME280;24980;48.874;2.332;2024-01-15T03:42:32;100415.53;;;25.73;32.14
39275;BME280;24980;48.874;2.332;2024-01-15T03:45:02;100419.19;;;25.73;32.14
39275;BME280;24980;48.874;2.332;2024-01-15T03:47:33;100421.22;;;25.71;32.17
39275;BME280;24980;48.874;2.332;2024-01-15T03:50:03;100415.36;;;25.72;32.17
39275;BME280;24980;48.874;2.332;2024-01-15T03:52:34;100417.77;;;25.71;32.17
39275;BME280;24980;48.874;2.332;2024-01-15T03:55:05;100411.55;;;25.71;32.14
39275;BME280;24980;48.874;2.332;2024-01-15T03:57:34;100410.03;;;25.68;32.17
39275;BME280;24980;48.874;2.332;2024-01-15T04:00:06;100404.97;;;25.67;32.20
39275;BME280;24980;48.874;2.332;2024-01-15T04:02:36;100402.52;;;25.67;32.22
39275;BME280;24980;48.874;2.332;2024-01-15T04:07:41;100386.59;;;25.73;32.19
39275;BME280;24980;48.874;2.332;2024-01-15T04:10:09;100382.06;;;25.74;32.18
39275;BME280;24980;48.874;2.332;2024-01-15T04:12:36;100380.99;;;25.73;32.18
39275;BME280;24980;48.874;2.332;2024-01-15T04:15:07;100381.14;;;25.72;32.20
39275;BME280;24980;48.874;2.332;2024-01-15T04:17:37;100376.66;;;25.72;32.21
39275;BME280;24980;48.874;2.332;2024-01-15T04:20:14;100376.30;;;25.74;32.19
39275;BME280;24980;48.874;2.332;2024-01-15T04:22:44;100374.36;;;25.75;32.19
39275;BME280;24980;48.874;2.332;2024-01-15T04:25:08;100368.44;;;25.73;32.20
39275;BME280;24980;48.874;2.332;2024-01-15T04:27:38;100369.52;;;25.74;32.19
39275;BME280;24980;48.874;2.332;2024-01-15T04:30:09;100369.25;;;25.74;32.19
39275;BME280;24980;48.874;2.332;2024-01-15T04:32:39;100366.98;;;25.72;32.23
39275;BME280;24980;48.874;2.332;2024-01-15T04:35:09;100363.91;;;25.69;32.25
39275;BME280;24980;48.874;2.332;2024-01-15T04:37:40;100358.33;;;25.71;32.25
39275;BME280;24980;48.874;2.332;2024-01-15T04:40:10;100353.41;;;25.73;32.25
39275;BME280;24980;48.874;2.332;2024-01-15T04:42:40;100354.22;;;25.74;32.22
39275;BME280;24980;48.874;2.332;2024-01-15T04:45:12;100351.96;;;25.73;32.25
39275;BME280;24980;48.874;2.332;2024-01-15T04:47:40;100349.61;;;25.72;32.27
39275;BME280;24980;48.874;2.332;2024-01-15T04:50:10;100347.32;;;25.70;32.29
39275;BME280;24980;48.874;2.332;2024-01-15T04:52:41;100343.11;;;25.69;32.31
39275;BME280;24980;48.874;2.332;2024-01-15T04:55:11;100338.86;;;25.67;32.32
39275;BME280;24980;48.874;2.332;2024-01-15T04:57:44;100344.67;;;25.68;32.32
39275;BME280;24980;48.874;2.332;2024-01-15T05:00:11;100343.43;;;25.69;32.30
39275;BME280;24980;48.874;2.332;2024-01-15T05:02:42;100343.95;;;25.69;32.30
39275;BME280;24980;48.874;2.332;2024-01-15T05:05:12;100347.77;;;25.67;32.31
39275;BME280;24980;48.874;2.332;2024-01-15T05:07:42;100344.73;;;25.66;32.31
39275;BME280;24980;48.874;2.332;2024-01-15T05:10:12;100343.39;;;25.66;32.32
39275;BME280;24980;48.874;2.332;2024-01-15T05:12:42;100346.27;;;25.66;32.31
39275;BME280;24980;48.874;2.332;2024-01-15T05:15:12;100346.66;;;25.68;32.30
39275;BME280;24980;48.874;2.332;2024-01-15T05:17:42;100342.12;;;25.66;32.30
39275;BME280;24980;48.874;2.332;2024-01-15T05:20:12;100339.67;;;25.65;32.30
39275;BME280;24980;48.874;2.332;2024-01-15T05:22:42;100337.12;;;25.63;32.32
39275;BME280;24980;48.874;2.332;2024-01-15T05:25:14;100338.48;;;25.63;32.33
39275;BME280;24980;48.874;2.332;2024-01-15T05:27:43;100334.62;;;25.65;32.31
39275;BME280;24980;48.874;2.332;2024-01-15T05:30:13;100334.66;;;25.66;32.29
39275;BME280;24980;48.874;2.332;2024-01-15T05:32:46;100334.49;;;25.68;32.28
39275;BME280;24980;48.874;2.332;2024-01-15T05:35:27;100331.55;;;25.69;32.24
39275;BME280;24980;48.874;2.332;2024-01-15T05:37:45;100328.23;;;25.70;32.23
39275;BME280;24980;48.874;2.332;2024-01-15T05:40:14;100325.36;;;25.67;32.26
39275;BME280;24980;48.874;2.332;2024-01-15T05:42:44;100319.44;;;25.66;32.28
39275;BME280;24980;48.874;2.332;2024-01-15T05:45:14;100324.65;;;25.68;32.27
39275;BME280;24980;48.874;2.332;2024-01-15T05:47:44;100317.18;;;25.70;32.23
39275;BME280;24980;48.874;2.332;2024-01-15T05:50:14;100317.25;;;25.71;32.25
39275;BME280;24980;48.874;2.332;2024-01-15T05:52:46;100313.95;;;25.70;32.24
39275;BME280;24980;48.874;2.332;2024-01-15T05:55:14;100315.12;;;25.66;32.29
39275;BME280;24980;48.874;2.332;2024-01-15T05:57:45;100309.62;;;25.63;32.32
39275;BME280;24980;48.874;2.332;2024-01-15T06:00:15;100315.43;;;25.62;32.36
39275;BME280;24980;48.874;2.332;2024-01-15T06:02:48;100316.27;;;25.63;32.38
39275;BME280;24980;48.874;2.332;2024-01-15T06:05:17;100312.44;;;25.63;32.39
39275;BME280;24980;48.874;2.332;2024-01-15T06:07:56;100314.38;;;25.65;32.38
39275;BME280;24980;48.874;2.332;2024-01-15T06:10:18;100315.19;;;25.65;32.39
39275;BME280;24980;48.874;2.332;2024-01-15T06:12:47;100311.34;;;25.63;32.43
39275;BME280;24980;48.874;2.332;2024-01-15T06:15:18;100312.55;;;25.62;32.48
39275;BME280;24980;48.874;2.332;2024-01-15T06:17:48;100307.30;;;25.64;32.48
39275;BME280;24980;48.874;2.332;2024-01-15T06:20:18;100309.87;;;25.66;32.47
39275;BME280;24980;48.874;2.332;2024-01-15T06:22:48;100309.07;;;25.67;32.45
39275;BME280;24980;48.874;2.332;2024-01-15T06:25:18;100308.47;;;25.69;32.41
39275;BME280;24980;48.874;2.332;2024-01-15T06:27:48;100315.13;;;25.66;32.42
39275;BME280;24980;48.874;2.332;2024-01-15T06:30:21;100316.19;;;25.62;32.45
39275;BME280;24980;48.874;2.332;2024-01-15T06:32:49;100315.05;;;25.61;32.45
39275;BME280;24980;48.874;2.332;2024-01-15T06:35:19;100318.10;;;25.62;32.44
39275;BME280;24980;48.874;2.332;2024-01-15T06:37:49;100320.57;;;25.63;32.42
39275;BME280;24980;48.874;2.332;2024-01-15T06:40:20;100321.39;;;25.64;32.40
39275;BME280;24980;48.874;2.332;2024-01-15T06:42:50;100325.05;;;25.64;32.39
39275;BME280;24980;48.874;2.332;2024-01-15T06:45:20;100324.98;;;25.62;32.40
39275;BME280;24980;48.874;2.332;2024-01-15T06:47:50;100315.67;;;25.62;32.41
39275;BME280;24980;48.874;2.332;2024-01-15T06:50:20;100314.28;;;25.62;32.42
39275;BME280;24980;48.874;2.332;2024-01-15T06:52:50;100314.71;;;25.64;32.38
39275;BME280;24980;48.874;2.332;2024-01-15T06:55:23;100315.28;;;25.64;32.37
39275;BME280;24980;48.874;2.332;2024-01-15T06:57:54;100328.86;;;25.64;32.37
39275;BME280;24980;48.874;2.332;2024-01-15T07:00:22;100332.77;;;25.64;32.33
39275;BME280;24980;48.874;2.332;2024-01-15T07:02:53;100336.33;;;25.64;32.32
39275;BME280;24980;48.874;2.332;2024-01-15T07:05:23;100333.98;;;25.63;32.34
39275;BME280;24980;48.874;2.332;2024-01-15T07:07:53;100331.43;;;25.62;32.36
39275;BME280;24980;48.874;2.332;2024-01-15T07:10:25;100325.30;;;25.64;32.34
39275;BME280;24980;48.874;2.332;2024-01-15T07:12:54;100317.94;;;25.65;32.32
39275;BME280;24980;48.874;2.332;2024-01-15T07:15:24;100319.54;;;25.64;32.32
39275;BME280;24980;48.874;2.332;2024-01-15T07:17:54;100312.78;;;25.63;32.32
39275;BME280;24980;48.874;2.332;2024-01-15T07:20:24;100319.78;;;25.59;32.35
39275;BME280;24980;48.874;2.332;2024-01-15T07:22:54;100332.76;;;25.58;32.38
39275;BME280;24980;48.874;2.332;2024-01-15T07:25:24;100325.56;;;25.59;32.38
39275;BME280;24980;48.874;2.332;2024-01-15T07:27:57;100330.78;;;25.61;32.38
39275;BME280;24980;48.874;2.332;2024-01-15T07:30:25;100351.49;;;25.62;32.35
39275;BME280;24980;48.874;2.332;2024-01-15T07:32:58;100345.27;;;25.64;32.32
39275;BME280;24980;48.874;2.332;2024-01-15T07:35:26;100345.61;;;25.65;32.30
39275;BME280;24980;48.874;2.332;2024-01-15T07:37:57;100353.83;;;25.64;32.30
39275;BME280;24980;48.874;2.332;2024-01-15T07:40:27;100351.03;;;25.62;32.33
39275;BME280;24980;48.874;2.332;2024-01-15T07:42:57;100352.73;;;25.62;32.34
39275;BME280;24980;48.874;2.332;2024-01-15T07:45:27;100348.66;;;25.62;32.34
39275;BME280;24980;48.874;2.332;2024-01-15T07:47:57;100362.97;;;25.60;32.36
39275;BME280;24980;48.874;2.332;2024-01-15T07:50:28;100358.98;;;25.58;32.36
39275;BME280;24980;48.874;2.332;2024-01-15T07:52:58;100361.66;;;25.59;32.35
39275;BME280;24980;48.874;2.332;2024-01-15T07:55:28;100364.66;;;25.58;32.35
39275;BME280;24980;48.874;2.332;2024-01-15T07:57:58;100372.38;;;25.53;32.38
39275;BME280;24980;48.874;2.332;2024-01-15T08:00:29;100369.23;;;25.48;32.42
39275;BME280;24980;48.874;2.332;2024-01-15T08:03:00;100361.98;;;25.42;32.46
39275;BME280;24980;48.874;2.332;2024-01-15T08:05:30;100365.78;;;25.37;32.50
39275;BME280;24980;48.874;2.332;2024-01-15T08:08:00;100371.63;;;25.35;32.51
39275;BME280;24980;48.874;2.332;2024-01-15T08:10:32;100371.80;;;25.33;32.52
39275;BME280;24980;48.874;2.332;2024-01-15T08:13:00;100376.97;;;25.28;32.57
39275;BME280;24980;48.874;2.332;2024-01-15T08:15:33;100375.34;;;25.27;32.61
39275;BME280;24980;48.874;2.332;2024-01-15T08:18:01;100375.84;;;25.27;32.62
39275;BME280;24980;48.874;2.332;2024-01-15T08:20:32;100377.38;;;25.28;32.62
39275;BME280;24980;48.874;2.332;2024-01-15T08:23:01;100382.45;;;25.29;32.62
39275;BME280;24980;48.874;2.332;2024-01-15T08:25:31;100384.26;;;25.28;32.63
39275;BME280;24980;48.874;2.332;2024-01-15T08:28:01;100385.02;;;25.26;32.65
39275;BME280;24980;48.874;2.332;2024-01-15T08:30:31;100386.69;;;25.24;32.67
39275;BME280;24980;48.874;2.332;2024-01-15T08:33:01;100387.76;;;25.23;32.69
39275;BME280;24980;48.874;2.332;2024-01-15T08:35:31;100390.73;;;25.23;32.69
39275;BME280;24980;48.874;2.332;2024-01-15T08:38:01;100391.07;;;25.23;32.69
39275;BME280;24980;48.874;2.332;2024-01-15T08:40:31;100397.27;;;25.25;32.68
39275;BME280;24980;48.874;2.332;2024-01-15T08:43:07;100400.56;;;25.23;32.66
39275;BME280;24980;48.874;2.332;2024-01-15T08:45:32;100405.27;;;25.19;32.69
39275;BME280;24980;48.874;2.332;2024-01-15T08:48:02;100414.41;;;25.20;32.70
39275;BME280;24980;48.874;2.332;2024-01-15T08:50:33;100416.70;;;25.22;32.65
39275;BME280;24980;48.874;2.332;2024-01-15T08:53:03;100414.22;;;25.23;32.63
39275;BME280;24980;48.874;2.332;2024-01-15T08:55:34;100421.79;;;25.22;32.63
39275;BME280;24980;48.874;2.332;2024-01-15T08:58:08;100431.05;;;25.19;32.64
39275;BME280;24980;48.874;2.332;2024-01-15T09:00:35;100432.42;;;25.18;32.66
39275;BME280;24980;48.874;2.332;2024-01-15T09:03:05;100429.95;;;25.17;32.65
39275;BME280;24980;48.874;2.332;2024-01-15T09:05:36;100432.67;;;25.16;32.66
39275;BME280;24980;48.874;2.332;2024-01-15T09:08:06;100436.00;;;25.18;32.66
39275;BME280;24980;48.874;2.332;2024-01-15T09:10:39;100443.05;;;25.17;32.67
39275;BME280;24980;48.874;2.332;2024-01-15T09:13:06;100446.02;;;25.15;32.70
39275;BME280;24980;48.874;2.332;2024-01-15T09:15:37;100452.12;;;25.15;32.69
39275;BME280;24980;48.874;2.332;2024-01-15T09:18:06;100459.01;;;25.14;32.71
39275;BME280;24980;48.874;2.332;2024-01-15T09:20:39;100456.60;;;25.14;32.74
39275;BME280;24980;48.874;2.332;2024-01-15T09:23:07;100448.30;;;25.15;32.73
39275;BME280;24980;48.874;2.332;2024-01-15T09:25:37;100451.52;;;25.18;32.69
39275;BME280;24980;48.874;2.332;2024-01-15T09:28:07;100450.97;;;25.20;32.67
39275;BME280;24980;48.874;2.332;2024-01-15T09:30:38;100446.57;;;25.19;32.67
39275;BME280;24980;48.874;2.332;2024-01-15T09:33:08;100448.70;;;25.21;32.63
39275;BME280;24980;48.874;2.332;2024-01-15T09:35:38;100448.72;;;25.18;32.65
39275;BME280;24980;48.874;2.332;2024-01-15T09:38:10;100452.89;;;25.15;32.67
39275;BME280;24980;48.874;2.332;2024-01-15T09:40:38;100453.84;;;25.14;32.67
39275;BME280;24980;48.874;2.332;2024-01-15T09:43:09;100459.50;;;25.15;32.66
39275;BME280;24980;48.874;2.332;2024-01-15T09:45:39;100464.52;;;25.15;32.66
39275;BME280;24980;48.874;2.332;2024-01-15T09:48:10;100466.30;;;25.14;32.66
39275;BME280;24980;48.874;2.332;2024-01-15T09:50:40;100470.96;;;25.15;32.63
39275;BME280;24980;48.874;2.332;2024-01-15T09:53:11;100469.12;;;25.11;32.63
39275;BME280;24980;48.874;2.332;2024-01-15T09:55:41;100472.95;;;25.08;32.65
39275;BME280;24980;48.874;2.332;2024-01-15T09:58:12;100474.12;;;25.07;32.67
39275;BME280;24980;48.874;2.332;2024-01-15T10:00:44;100477.34;;;25.07;32.69
39275;BME280;24980;48.874;2.332;2024-01-15T10:03:13;100479.98;;;25.06;32.69
39275;BME280;24980;48.874;2.332;2024-01-15T10:05:43;100481.94;;;25.08;32.68
39275;BME280;24980;48.874;2.332;2024-01-15T10:08:15;100486.58;;;25.10;32.64
39275;BME280;24980;48.874;2.332;2024-01-15T10:10:44;100484.49;;;25.08;32.64
39275;BME280;24980;48.874;2.332;2024-01-15T10:13:15;100488.57;;;25.05;32.64
39275;BME280;24980;48.874;2.332;2024-01-15T10:15:48;100496.28;;;25.08;32.63
39275;BME280;24980;48.874;2.332;2024-01-15T10:18:15;100496.16;;;25.09;32.61
39275;BME280;24980;48.874;2.332;2024-01-15T10:20:47;100497.44;;;25.09;32.60
39275;BME280;24980;48.874;2.332;2024-01-15T10:23:16;100493.70;;;25.09;32.57
39275;BME280;24980;48.874;2.332;2024-01-15T10:25:50;100487.94;;;25.09;32.56
39275;BME280;24980;48.874;2.332;2024-01-15T10:30:52;100497.03;;;25.04;32.57
39275;BME280;24980;48.874;2.332;2024-01-15T10:33:22;100492.70;;;25.04;32.58
39275;BME280;24980;48.874;2.332;2024-01-15T10:35:58;100488.67;;;25.04;32.58
39275;BME280;24980;48.874;2.332;2024-01-15T10:38:20;100492.46;;;25.06;32.62
39275;BME280;24980;48.874;2.332;2024-01-15T10:40:52;100497.33;;;25.10;32.60
39275;BME280;24980;48.874;2.332;2024-01-15T10:43:20;100502.38;;;25.11;32.60
39275;BME280;24980;48.874;2.332;2024-01-15T10:45:51;100499.38;;;25.12;32.58
39275;BME280;24980;48.874;2.332;2024-01-15T10:48:21;100503.03;;;25.09;32.59
39275;BME280;24980;48.874;2.332;2024-01-15T10:50:51;100502.61;;;25.09;32.59
39275;BME280;24980;48.874;2.332;2024-01-15T10:53:21;100501.52;;;25.09;32.57
39275;BME280;24980;48.874;2.332;2024-01-15T10:55:52;100500.99;;;25.10;32.54
39275;BME280;24980;48.874;2.332;2024-01-15T10:58:22;100505.27;;;25.08;32.54
39275;BME280;24980;48.874;2.332;2024-01-15T11:00:53;100503.05;;;25.06;32.55
39275;BME280;24980;48.874;2.332;2024-01-15T11:03:23;100504.76;;;25.01;32.57
39275;BME280;24980;48.874;2.332;2024-01-15T11:05:59;100510.95;;;24.98;32.58
39275;BME280;24980;48.874;2.332;2024-01-15T11:08:25;100509.73;;;24.93;32.60
39275;BME280;24980;48.874;2.332;2024-01-15T11:10:55;100508.81;;;24.95;32.56
39275;BME280;24980;48.874;2.332;2024-01-15T11:16:02;100507.91;;;25.00;32.52
39275;BME280;24980;48.874;2.332;2024-01-15T11:18:40;100513.14;;;25.01;32.50
39275;BME280;24980;48.874;2.332;2024-01-15T11:21:19;100510.81;;;25.01;32.47
39275;BME280;24980;48.874;2.332;2024-01-15T11:23:45;100509.28;;;25.00;32.48
39275;BME280;24980;48.874;2.332;2024-01-15T11:25:58;100510.72;;;24.99;32.49
39275;BME280;24980;48.874;2.332;2024-01-15T11:28:48;100521.33;;;25.01;32.49
39275;BME280;24980;48.874;2.332;2024-01-15T11:33:36;100518.19;;;25.02;32.48
39275;BME280;24980;48.874;2.332;2024-01-15T11:36:01;100522.64;;;25.03;32.46
39275;BME280;24980;48.874;2.332;2024-01-15T11:38:30;100519.02;;;25.03;32.44
39275;BME280;24980;48.874;2.332;2024-01-15T11:41:00;100527.94;;;25.02;32.43
39275;BME280;24980;48.874;2.332;2024-01-15T11:43:30;100514.89;;;24.99;32.45
39275;BME280;24980;48.874;2.332;2024-01-15T11:46:02;100509.60;;;24.98;32.45
39275;BME280;24980;48.874;2.332;2024-01-15T11:48:41;100515.64;;;24.99;32.43
39275;BME280;24980;48.874;2.332;2024-01-15T11:51:03;100512.34;;;24.99;32.42
39275;BME280;24980;48.874;2.332;2024-01-15T11:53:36;100507.61;;;24.96;32.43
39275;BME280;24980;48.874;2.332;2024-01-15T11:56:11;100505.04;;;24.95;32.42
39275;BME280;24980;48.874;2.332;2024-01-15T11:58:34;100500.30;;;24.94;32.42
39275;BME280;24980;48.874;2.332;2024-01-15T12:01:12;100501.33;;;24.91;32.40
39275;BME280;24980;48.874;2.332;2024-01-15T12:03:35;100495.41;;;24.91;32.41
39275;BME280;24980;48.874;2.332;2024-01-15T12:06:06;100491.41;;;24.92;32.40
39275;BME280;24980;48.874;2.332;2024-01-15T12:08:36;100494.81;;;24.93;32.39
39275;BME280;24980;48.874;2.332;2024-01-15T12:11:11;100504.28;;;24.97;32.36
39275;BME280;24980;48.874;2.332;2024-01-15T12:13:37;100500.55;;;25.02;32.33
39275;BME280;24980;48.874;2.332;2024-01-15T12:16:08;100502.81;;;25.03;32.31
39275;BME280;24980;48.874;2.332;2024-01-15T12:18:38;100504.09;;;25.00;32.32
39275;BME280;24980;48.874;2.332;2024-01-15T12:21:09;100505.22;;;24.99;32.34
39275;BME280;24980;48.874;2.332;2024-01-15T12:23:39;100501.41;;;24.97;32.34
39275;BME280;24980;48.874;2.332;2024-01-15T12:26:10;100505.47;;;24.97;32.33
39275;BME280;24980;48.874;2.332;2024-01-15T12:28:39;100501.72;;;24.98;32.33
39275;BME280;24980;48.874;2.332;2024-01-15T12:31:10;100501.59;;;24.96;32.32
39275;BME280;24980;48.874;2.332;2024-01-15T12:33:41;100504.70;;;24.95;32.33
39275;BME280;24980;48.874;2.332;2024-01-15T12:36:13;100505.98;;;24.97;32.29
39275;BME280;24980;48.874;2.332;2024-01-15T12:38:41;100499.98;;;24.96;32.29
39275;BME280;24980;48.874;2.332;2024-01-15T12:41:11;100495.75;;;24.93;32.31
39275;BME280;24980;48.874;2.332;2024-01-15T12:43:42;100502.00;;;24.94;32.30
39275;BME280;24980;48.874;2.332;2024-01-15T12:46:12;100503.97;;;24.93;32.30
39275;BME280;24980;48.874;2.332;2024-01-15T12:48:42;100508.66;;;24.92;32.30
39275;BME280;24980;48.874;2.332;2024-01-15T12:51:12;100509.16;;;24.92;32.28
39275;BME280;24980;48.874;2.332;2024-01-15T12:53:43;100501.66;;;24.91;32.28
39275;BME280;24980;48.874;2.332;2024-01-15T12:56:13;100505.70;;;24.88;32.28
39275;BME280;24980;48.874;2.332;2024-01-15T12:58:43;100502.36;;;24.88;32.28
39275;BME280;24980;48.874;2.332;2024-01-15T13:01:13;100502.95;;;24.88;32.29
39275;BME280;24980;48.874;2.332;2024-01-15T13:03:47;100501.02;;;24.90;32.27
39275;BME280;24980;48.874;2.332;2024-01-15T13:06:14;100501.93;;;24.88;32.26
39275;BME280;24980;48.874;2.332;2024-01-15T13:08:44;100503.92;;;24.89;32.27
39275;BME280;24980;48.874;2.332;2024-01-15T13:11:14;100491.70;;;24.87;32.25
39275;BME280;24980;48.874;2.332;2024-01-15T13:13:45;100490.47;;;24.85;32.25
39275;BME280;24980;48.874;2.332;2024-01-15T13:16:15;100498.14;;;24.85;32.24